sensor_id;sensor_type;location;lat;lon;timestamp;P1;durP1;ratioP1;P2;durP2;ratioP2
32613;SDS011;19031;51.400;6.770;2023-05-27T00:02:01;24.73;;;4.95;;
32613;SDS011;19031;51.400;6.770;2023-05-27T00:04:27;19.92;;;5.03;;
32613;SDS011;19031;51.400;6.770;2023-05-27T00:06:52;15.18;;;4.32;;
32613;SDS011;19031;51.400;6.770;2023-05-27T00:09:18;22.50;;;4.68;;
32613;SDS011;19031;51.400;6.770;2023-05-27T00:11:44;17.35;;;4.47;;
32613;SDS011;19031;51.400;6.770;2023-05-27T00:14:09;22.85;;;4.38;;
32613;SDS011;19031;51.400;6.770;2023-05-27T00:16:35;17.27;;;3.80;;
32613;SDS011;19031;51.400;6.770;2023-05-27T00:19:01;17.02;;;3.80;;
32613;SDS011;19031;51.400;6.770;2023-05-27T00:21:27;17.05;;;4.00;;
32613;SDS011;19031;51.400;6.770;2023-05-27T00:23:53;14.60;;;3.83;;
32613;SDS011;19031;51.400;6.770;2023-05-27T00:26:19;18.77;;;4.38;;
32613;SDS011;19031;51.400;6.770;2023-05-27T00:28:45;13.70;;;3.92;;
32613;SDS011;19031;51.400;6.770;2023-05-27T00:31:11;15.10;;;2.97;;
32613;SDS011;19031;51.400;6.770;2023-05-27T00:33:36;12.77;;;3.63;;
32613;SDS011;19031;51.400;6.770;2023-05-27T00:36:02;16.27;;;4.18;;
32613;SDS011;19031;51.400;6.770;2023-05-27T00:38:28;20.02;;;3.67;;
32613;SDS011;19031;51.400;6.770;2023-05-27T00:40:54;17.65;;;3.92;;
32613;SDS011;19031;51.400;6.770;2023-05-27T00:43:21;21.13;;;4.25;;
32613;SDS011;19031;51.400;6.770;2023-05-27T00:45:47;12.82;;;3.42;;
32613;SDS011;19031;51.400;6.770;2023-05-27T00:48:12;23.75;;;3.92;;
32613;SDS011;19031;51.400;6.770;2023-05-27T00:50:38;15.32;;;3.28;;
32613;SDS011;19031;51.400;6.770;2023-05-27T00:53:04;17.52;;;4.18;;
32613;SDS011;19031;51.400;6.770;2023-05-27T00:55:29;17.05;;;4.50;;
32613;SDS011;19031;51.400;6.770;2023-05-27T00:57:55;15.43;;;4.40;;
32613;SDS011;19031;51.400;6.770;2023-05-27T01:00:21;26.38;;;4.47;;
32613;SDS011;19031;51.400;6.770;2023-05-27T01:02:47;10.30;;;3.50;;
32613;SDS011;19031;51.400;6.770;2023-05-27T01:05:15;15.95;;;3.90;;
32613;SDS011;19031;51.400;6.770;2023-05-27T01:13:16;16.83;;;3.72;;
32613;SDS011;19031;51.400;6.770;2023-05-27T01:15:52;17.33;;;4.43;;
32613;SDS011;19031;51.400;6.770;2023-05-27T01:18:19;20.58;;;4.45;;
32613;SDS011;19031;51.400;6.770;2023-05-27T01:20:48;15.60;;;4.10;;
32613;SDS011;19031;51.400;6.770;2023-05-27T01:23:16;19.08;;;4.18;;
32613;SDS011;19031;51.400;6.770;2023-05-27T01:25:42;16.10;;;4.05;;
32613;SDS011;19031;51.400;6.770;2023-05-27T01:28:08;18.40;;;4.45;;
32613;SDS011;19031;51.400;6.770;2023-05-27T01:30:34;16.60;;;3.85;;
32613;SDS011;19031;51.400;6.770;2023-05-27T01:33:12;17.33;;;5.55;;
32613;SDS011;19031;51.400;6.770;2023-05-27T01:35:44;19.65;;;3.83;;
32613;SDS011;19031;51.400;6.770;2023-05-27T01:38:14;18.58;;;4.35;;
32613;SDS011;19031;51.400;6.770;2023-05-27T01:40:42;19.15;;;4.47;;
32613;SDS011;19031;51.400;6.770;2023-05-27T01:43:09;16.98;;;4.45;;
32613;SDS011;19031;51.400;6.770;2023-05-27T01:45:38;20.88;;;4.30;;
32613;SDS011;19031;51.400;6.770;2023-05-27T01:48:04;13.75;;;3.85;;
32613;SDS011;19031;51.400;6.770;2023-05-27T01:50:30;18.45;;;3.85;;
32613;SDS011;19031;51.400;6.770;2023-05-27T01:52:56;21.30;;;4.90;;
32613;SDS011;19031;51.400;6.770;2023-05-27T01:55:22;18.45;;;4.53;;
32613;SDS011;19031;51.400;6.770;2023-05-27T01:57:48;22.27;;;4.78;;
32613;SDS011;19031;51.400;6.770;2023-05-27T02:00:14;19.98;;;5.50;;
32613;SDS011;19031;51.400;6.770;2023-05-27T02:02:40;16.20;;;4.38;;
32613;SDS011;19031;51.400;6.770;2023-05-27T02:05:06;14.55;;;4.07;;
32613;SDS011;19031;51.400;6.770;2023-05-27T02:07:32;22.55;;;4.45;;
32613;SDS011;19031;51.400;6.770;2023-05-27T02:09:58;14.70;;;3.78;;
32613;SDS011;19031;51.400;6.770;2023-05-27T02:12:23;15.30;;;4.43;;
32613;SDS011;19031;51.400;6.770;2023-05-27T02:14:49;15.10;;;3.92;;
32613;SDS011;19031;51.400;6.770;2023-05-27T02:17:16;24.85;;;4.43;;
32613;SDS011;19031;51.400;6.770;2023-05-27T02:19:42;13.70;;;3.72;;
32613;SDS011;19031;51.400;6.770;2023-05-27T02:22:07;20.30;;;4.90;;
32613;SDS011;19031;51.400;6.770;2023-05-27T02:24:33;21.42;;;4.65;;
32613;SDS011;19031;51.400;6.770;2023-05-27T02:26:59;14.02;;;3.85;;
32613;SDS011;19031;51.400;6.770;2023-05-27T02:29:26;21.08;;;4.72;;
32613;SDS011;19031;51.400;6.770;2023-05-27T02:31:51;17.90;;;4.63;;
32613;SDS011;19031;51.400;6.770;2023-05-27T02:34:17;18.45;;;4.72;;
32613;SDS011;19031;51.400;6.770;2023-05-27T02:36:43;15.52;;;4.00;;
32613;SDS011;19031;51.400;6.770;2023-05-27T02:39:09;18.45;;;4.85;;
32613;SDS011;19031;51.400;6.770;2023-05-27T02:41:35;18.10;;;3.88;;
32613;SDS011;19031;51.400;6.770;2023-05-27T02:44:01;18.95;;;4.15;;
32613;SDS011;19031;51.400;6.770;2023-05-27T02:46:27;19.25;;;4.95;;
32613;SDS011;19031;51.400;6.770;2023-05-27T02:48:53;18.58;;;4.68;;
32613;SDS011;19031;51.400;6.770;2023-05-27T02:51:19;16.40;;;4.13;;
32613;SDS011;19031;51.400;6.770;2023-05-27T02:53:45;23.25;;;5.72;;
32613;SDS011;19031;51.400;6.770;2023-05-27T02:56:11;19.52;;;4.97;;
32613;SDS011;19031;51.400;6.770;2023-05-27T02:58:36;14.55;;;4.63;;
32613;SDS011;19031;51.400;6.770;2023-05-27T03:01:02;18.02;;;5.15;;
32613;SDS011;19031;51.400;6.770;2023-05-27T03:03:28;13.50;;;4.93;;
32613;SDS011;19031;51.400;6.770;2023-05-27T03:05:54;13.88;;;5.00;;
32613;SDS011;19031;51.400;6.770;2023-05-27T03:08:20;15.88;;;4.65;;
32613;SDS011;19031;51.400;6.770;2023-05-27T03:10:45;17.70;;;5.03;;
32613;SDS011;19031;51.400;6.770;2023-05-27T03:13:11;18.33;;;5.47;;
32613;SDS011;19031;51.400;6.770;2023-05-27T03:15:36;17.73;;;4.55;;
32613;SDS011;19031;51.400;6.770;2023-05-27T03:18:03;16.77;;;5.63;;
32613;SDS011;19031;51.400;6.770;2023-05-27T03:20:29;20.30;;;4.97;;
32613;SDS011;19031;51.400;6.770;2023-05-27T03:22:54;18.80;;;4.65;;
32613;SDS011;19031;51.400;6.770;2023-05-27T03:25:21;16.85;;;5.07;;
32613;SDS011;19031;51.400;6.770;2023-05-27T03:27:46;24.60;;;6.30;;
32613;SDS011;19031;51.400;6.770;2023-05-27T03:30:12;21.20;;;5.10;;
32613;SDS011;19031;51.400;6.770;2023-05-27T03:32:38;21.20;;;4.55;;
32613;SDS011;19031;51.400;6.770;2023-05-27T03:35:03;16.52;;;3.88;;
32613;SDS011;19031;51.400;6.770;2023-05-27T03:37:29;21.27;;;5.00;;
32613;SDS011;19031;51.400;6.770;2023-05-27T03:39:55;20.23;;;4.95;;
32613;SDS011;19031;51.400;6.770;2023-05-27T03:42:21;21.08;;;4.88;;
32613;SDS011;19031;51.400;6.770;2023-05-27T03:44:46;21.25;;;5.50;;
32613;SDS011;19031;51.400;6.770;2023-05-27T03:47:12;19.33;;;4.53;;
32613;SDS011;19031;51.400;6.770;2023-05-27T03:49:38;11.27;;;4.10;;
32613;SDS011;19031;51.400;6.770;2023-05-27T03:52:03;26.63;;;4.95;;
32613;SDS011;19031;51.400;6.770;2023-05-27T03:54:30;18.63;;;4.10;;
32613;SDS011;19031;51.400;6.770;2023-05-27T03:56:55;22.70;;;5.03;;
32613;SDS011;19031;51.400;6.770;2023-05-27T03:59:21;23.13;;;4.82;;
32613;SDS011;19031;51.400;6.770;2023-05-27T04:01:46;13.02;;;4.38;;
32613;SDS011;19031;51.400;6.770;2023-05-27T04:04:12;16.65;;;4.45;;
32613;SDS011;19031;51.400;6.770;2023-05-27T04:06:38;25.02;;;5.63;;
32613;SDS011;19031;51.400;6.770;2023-05-27T04:09:04;24.50;;;4.78;;
32613;SDS011;19031;51.400;6.770;2023-05-27T04:11:30;18.33;;;5.03;;
32613;SDS011;19031;51.400;6.770;2023-05-27T04:13:55;18.05;;;4.35;;
32613;SDS011;19031;51.400;6.770;2023-05-27T04:16:21;22.73;;;4.80;;
32613;SDS011;19031;51.400;6.770;2023-05-27T04:18:48;19.38;;;5.30;;
32613;SDS011;19031;51.400;6.770;2023-05-27T04:21:15;16.80;;;4.25;;
32613;SDS011;19031;51.400;6.770;2023-05-27T04:23:41;12.50;;;4.68;;
32613;SDS011;19031;51.400;6.770;2023-05-27T04:26:07;19.05;;;5.05;;
32613;SDS011;19031;51.400;6.770;2023-05-27T04:28:32;12.65;;;4.65;;
32613;SDS011;19031;51.400;6.770;2023-05-27T04:31:01;20.15;;;4.95;;
32613;SDS011;19031;51.400;6.770;2023-05-27T04:33:27;21.83;;;5.03;;
32613;SDS011;19031;51.400;6.770;2023-05-27T04:35:55;19.52;;;5.15;;
32613;SDS011;19031;51.400;6.770;2023-05-27T04:38:21;21.55;;;5.78;;
32613;SDS011;19031;51.400;6.770;2023-05-27T04:40:50;18.77;;;5.25;;
32613;SDS011;19031;51.400;6.770;2023-05-27T04:43:18;12.18;;;4.57;;
32613;SDS011;19031;51.400;6.770;2023-05-27T04:45:44;17.08;;;5.72;;
32613;SDS011;19031;51.400;6.770;2023-05-27T04:48:11;19.65;;;4.63;;
32613;SDS011;19031;51.400;6.770;2023-05-27T04:50:36;20.77;;;5.05;;
32613;SDS011;19031;51.400;6.770;2023-05-27T04:53:02;14.80;;;4.60;;
32613;SDS011;19031;51.400;6.770;2023-05-27T04:55:28;17.83;;;5.03;;
32613;SDS011;19031;51.400;6.770;2023-05-27T04:57:55;19.15;;;5.45;;
32613;SDS011;19031;51.400;6.770;2023-05-27T05:00:21;15.32;;;4.70;;
32613;SDS011;19031;51.400;6.770;2023-05-27T05:03:03;17.25;;;5.32;;
32613;SDS011;19031;51.400;6.770;2023-05-27T05:05:30;20.10;;;4.43;;
32613;SDS011;19031;51.400;6.770;2023-05-27T05:07:56;16.70;;;4.50;;
32613;SDS011;19031;51.400;6.770;2023-05-27T05:10:22;15.32;;;4.68;;
32613;SDS011;19031;51.400;6.770;2023-05-27T05:12:48;12.43;;;4.53;;
32613;SDS011;19031;51.400;6.770;2023-05-27T05:15:14;15.90;;;5.82;;
32613;SDS011;19031;51.400;6.770;2023-05-27T05:17:39;15.38;;;4.18;;
32613;SDS011;19031;51.400;6.770;2023-05-27T05:20:05;20.90;;;5.50;;
32613;SDS011;19031;51.400;6.770;2023-05-27T05:22:31;19.27;;;4.32;;
32613;SDS011;19031;51.400;6.770;2023-05-27T05:24:57;17.20;;;4.63;;
32613;SDS011;19031;51.400;6.770;2023-05-27T05:27:23;17.33;;;5.10;;
32613;SDS011;19031;51.400;6.770;2023-05-27T05:29:50;12.40;;;3.97;;
32613;SDS011;19031;51.400;6.770;2023-05-27T05:32:15;22.52;;;4.82;;
32613;SDS011;19031;51.400;6.770;2023-05-27T05:34:41;22.85;;;5.72;;
32613;SDS011;19031;51.400;6.770;2023-05-27T05:37:07;20.38;;;5.30;;
32613;SDS011;19031;51.400;6.770;2023-05-27T05:39:32;16.92;;;4.97;;
32613;SDS011;19031;51.400;6.770;2023-05-27T05:41:58;13.52;;;5.13;;
32613;SDS011;19031;51.400;6.770;2023-05-27T05:44:24;28.02;;;5.15;;
32613;SDS011;19031;51.400;6.770;2023-05-27T05:46:51;18.88;;;5.43;;
32613;SDS011;19031;51.400;6.770;2023-05-27T05:49:17;22.10;;;5.05;;
32613;SDS011;19031;51.400;6.770;2023-05-27T05:51:43;20.58;;;5.63;;
32613;SDS011;19031;51.400;6.770;2023-05-27T05:54:09;19.70;;;5.40;;
32613;SDS011;19031;51.400;6.770;2023-05-27T05:56:34;25.10;;;6.70;;
32613;SDS011;19031;51.400;6.770;2023-05-27T05:59:00;21.15;;;5.00;;
32613;SDS011;19031;51.400;6.770;2023-05-27T06:01:26;20.73;;;5.78;;
32613;SDS011;19031;51.400;6.770;2023-05-27T06:03:54;16.63;;;4.55;;
32613;SDS011;19031;51.400;6.770;2023-05-27T06:06:21;18.77;;;6.05;;
32613;SDS011;19031;51.400;6.770;2023-05-27T06:08:47;25.67;;;5.25;;
32613;SDS011;19031;51.400;6.770;2023-05-27T06:11:13;20.73;;;4.55;;
32613;SDS011;19031;51.400;6.770;2023-05-27T06:13:39;25.55;;;5.43;;
32613;SDS011;19031;51.400;6.770;2023-05-27T06:16:05;18.75;;;5.45;;
32613;SDS011;19031;51.400;6.770;2023-05-27T06:18:31;15.27;;;4.88;;
32613;SDS011;19031;51.400;6.770;2023-05-27T06:20:56;15.27;;;4.30;;
32613;SDS011;19031;51.400;6.770;2023-05-27T06:23:22;17.65;;;4.95;;
32613;SDS011;19031;51.400;6.770;2023-05-27T06:25:48;15.93;;;4.97;;
32613;SDS011;19031;51.400;6.770;2023-05-27T06:28:13;20.67;;;6.00;;
32613;SDS011;19031;51.400;6.770;2023-05-27T06:30:39;16.67;;;4.90;;
32613;SDS011;19031;51.400;6.770;2023-05-27T06:33:05;15.52;;;4.95;;
32613;SDS011;19031;51.400;6.770;2023-05-27T06:35:31;16.27;;;5.30;;
32613;SDS011;19031;51.400;6.770;2023-05-27T06:38:00;18.10;;;5.18;;
32613;SDS011;19031;51.400;6.770;2023-05-27T06:40:26;16.10;;;4.85;;
32613;SDS011;19031;51.400;6.770;2023-05-27T06:42:51;27.40;;;6.10;;
32613;SDS011;19031;51.400;6.770;2023-05-27T06:45:18;20.42;;;5.00;;
32613;SDS011;19031;51.400;6.770;2023-05-27T06:47:43;19.30;;;4.45;;
32613;SDS011;19031;51.400;6.770;2023-05-27T06:50:09;19.02;;;4.57;;
32613;SDS011;19031;51.400;6.770;2023-05-27T06:52:35;17.55;;;4.85;;
32613;SDS011;19031;51.400;6.770;2023-05-27T06:55:00;13.32;;;5.05;;
32613;SDS011;19031;51.400;6.770;2023-05-27T06:57:26;21.23;;;4.43;;
32613;SDS011;19031;51.400;6.770;2023-05-27T06:59:52;18.42;;;5.28;;
32613;SDS011;19031;51.400;6.770;2023-05-27T07:02:17;14.30;;;4.20;;
32613;SDS011;19031;51.400;6.770;2023-05-27T07:04:43;16.63;;;5.35;;
32613;SDS011;19031;51.400;6.770;2023-05-27T07:07:09;28.02;;;5.32;;
32613;SDS011;19031;51.400;6.770;2023-05-27T07:09:34;16.95;;;4.05;;
32613;SDS011;19031;51.400;6.770;2023-05-27T07:12:01;14.52;;;4.15;;
32613;SDS011;19031;51.400;6.770;2023-05-27T07:14:27;10.13;;;4.60;;
32613;SDS011;19031;51.400;6.770;2023-05-27T07:16:52;14.20;;;4.38;;
32613;SDS011;19031;51.400;6.770;2023-05-27T07:19:18;12.82;;;4.18;;
32613;SDS011;19031;51.400;6.770;2023-05-27T07:21:44;16.50;;;4.85;;
32613;SDS011;19031;51.400;6.770;2023-05-27T07:24:09;14.98;;;4.32;;
32613;SDS011;19031;51.400;6.770;2023-05-27T07:26:35;13.23;;;4.45;;
32613;SDS011;19031;51.400;6.770;2023-05-27T07:29:01;14.73;;;4.40;;
32613;SDS011;19031;51.400;6.770;2023-05-27T07:31:27;13.23;;;4.20;;
32613;SDS011;19031;51.400;6.770;2023-05-27T07:33:53;8.55;;;3.65;;
32613;SDS011;19031;51.400;6.770;2023-05-27T07:36:20;17.70;;;4.60;;
32613;SDS011;19031;51.400;6.770;2023-05-27T07:38:45;12.07;;;4.70;;
32613;SDS011;19031;51.400;6.770;2023-05-27T07:41:11;15.45;;;4.18;;
32613;SDS011;19031;51.400;6.770;2023-05-27T07:43:37;15.25;;;4.07;;
32613;SDS011;19031;51.400;6.770;2023-05-27T07:46:03;10.85;;;3.60;;
32613;SDS011;19031;51.400;6.770;2023-05-27T07:48:28;12.85;;;4.70;;
32613;SDS011;19031;51.400;6.770;2023-05-27T07:50:54;12.48;;;3.63;;
32613;SDS011;19031;51.400;6.770;2023-05-27T07:53:20;13.40;;;4.15;;
32613;SDS011;19031;51.400;6.770;2023-05-27T07:55:46;14.70;;;4.03;;
32613;SDS011;19031;51.400;6.770;2023-05-27T07:58:12;8.50;;;3.72;;
32613;SDS011;19031;51.400;6.770;2023-05-27T08:00:38;13.10;;;3.75;;
32613;SDS011;19031;51.400;6.770;2023-05-27T08:03:03;11.88;;;4.40;;
32613;SDS011;19031;51.400;6.770;2023-05-27T08:05:29;16.52;;;4.57;;
32613;SDS011;19031;51.400;6.770;2023-05-27T08:07:55;11.60;;;3.45;;
32613;SDS011;19031;51.400;6.770;2023-05-27T08:10:21;13.00;;;3.45;;
32613;SDS011;19031;51.400;6.770;2023-05-27T08:12:47;12.00;;;3.65;;
32613;SDS011;19031;51.400;6.770;2023-05-27T08:15:12;18.00;;;4.32;;
32613;SDS011;19031;51.400;6.770;2023-05-27T08:17:38;14.30;;;3.65;;
32613;SDS011;19031;51.400;6.770;2023-05-27T08:20:05;13.95;;;3.70;;
32613;SDS011;19031;51.400;6.770;2023-05-27T08:22:31;14.90;;;3.83;;
32613;SDS011;19031;51.400;6.770;2023-05-27T08:25:00;12.50;;;4.63;;
32613;SDS011;19031;51.400;6.770;2023-05-27T08:30:26;12.88;;;3.88;;
32613;SDS011;19031;51.400;6.770;2023-05-27T08:32:56;14.15;;;3.60;;
32613;SDS011;19031;51.400;6.770;2023-05-27T08:35:25;12.05;;;4.07;;
32613;SDS011;19031;51.400;6.770;2023-05-27T08:37:51;10.65;;;3.30;;
32613;SDS011;19031;51.400;6.770;2023-05-27T08:40:20;13.35;;;4.32;;
32613;SDS011;19031;51.400;6.770;2023-05-27T08:42:46;10.73;;;3.97;;
32613;SDS011;19031;51.400;6.770;2023-05-27T08:45:15;16.05;;;4.70;;
32613;SDS011;19031;51.400;6.770;2023-05-27T08:47:41;11.88;;;4.03;;
32613;SDS011;19031;51.400;6.770;2023-05-27T08:50:10;17.20;;;4.43;;
32613;SDS011;19031;51.400;6.770;2023-05-27T08:52:44;15.00;;;4.60;;
32613;SDS011;19031;51.400;6.770;2023-05-27T08:55:15;12.82;;;4.60;;
32613;SDS011;19031;51.400;6.770;2023-05-27T08:57:46;16.52;;;4.63;;
32613;SDS011;19031;51.400;6.770;2023-05-27T09:00:21;15.13;;;4.15;;
32613;SDS011;19031;51.400;6.770;2023-05-27T09:02:47;12.55;;;3.45;;
32613;SDS011;19031;51.400;6.770;2023-05-27T09:05:14;17.23;;;4.47;;
32613;SDS011;19031;51.400;6.770;2023-05-27T09:07:41;9.57;;;2.97;;
32613;SDS011;19031;51.400;6.770;2023-05-27T09:10:07;14.18;;;4.03;;
32613;SDS011;19031;51.400;6.770;2023-05-27T09:12:33;15.80;;;3.92;;
32613;SDS011;19031;51.400;6.770;2023-05-27T09:14:59;12.52;;;4.10;;
32613;SDS011;19031;51.400;6.770;2023-05-27T09:17:25;13.15;;;3.75;;
32613;SDS011;19031;51.400;6.770;2023-05-27T09:19:51;14.52;;;3.67;;
32613;SDS011;19031;51.400;6.770;2023-05-27T09:22:21;16.30;;;4.00;;
32613;SDS011;19031;51.400;6.770;2023-05-27T09:24:48;13.52;;;4.32;;
32613;SDS011;19031;51.400;6.770;2023-05-27T09:27:14;15.00;;;3.30;;
32613;SDS011;19031;51.400;6.770;2023-05-27T09:29:40;13.98;;;3.65;;
32613;SDS011;19031;51.400;6.770;2023-05-27T09:32:06;13.60;;;5.05;;
32613;SDS011;19031;51.400;6.770;2023-05-27T09:34:39;12.93;;;4.00;;
32613;SDS011;19031;51.400;6.770;2023-05-27T09:37:05;8.77;;;3.08;;
32613;SDS011;19031;51.400;6.770;2023-05-27T09:39:38;10.45;;;2.97;;
32613;SDS011;19031;51.400;6.770;2023-05-27T09:42:04;12.95;;;3.50;;
32613;SDS011;19031;51.400;6.770;2023-05-27T09:44:34;14.23;;;3.88;;
32613;SDS011;19031;51.400;6.770;2023-05-27T09:47:02;10.55;;;3.30;;
32613;SDS011;19031;51.400;6.770;2023-05-27T09:49:30;12.45;;;3.75;;
32613;SDS011;19031;51.400;6.770;2023-05-27T09:52:00;11.23;;;2.92;;
32613;SDS011;19031;51.400;6.770;2023-05-27T09:54:26;12.38;;;3.08;;
32613;SDS011;19031;51.400;6.770;2023-05-27T09:56:52;10.07;;;3.22;;
32613;SDS011;19031;51.400;6.770;2023-05-27T09:59:19;15.73;;;3.60;;
32613;SDS011;19031;51.400;6.770;2023-05-27T10:01:45;9.95;;;2.85;;
32613;SDS011;19031;51.400;6.770;2023-05-27T10:04:13;9.32;;;3.13;;
32613;SDS011;19031;51.400;6.770;2023-05-27T10:06:41;12.07;;;3.65;;
32613;SDS011;19031;51.400;6.770;2023-05-27T10:09:06;11.93;;;3.78;;
32613;SDS011;19031;51.400;6.770;2023-05-27T10:11:33;10.23;;;3.40;;
32613;SDS011;19031;51.400;6.770;2023-05-27T10:14:02;9.43;;;3.22;;
32613;SDS011;19031;51.400;6.770;2023-05-27T10:16:28;12.82;;;3.72;;
32613;SDS011;19031;51.400;6.770;2023-05-27T10:18:54;10.50;;;3.30;;
32613;SDS011;19031;51.400;6.770;2023-05-27T10:21:21;9.82;;;2.72;;
32613;SDS011;19031;51.400;6.770;2023-05-27T10:23:57;7.40;;;2.80;;
32613;SDS011;19031;51.400;6.770;2023-05-27T10:26:35;10.82;;;3.30;;
32613;SDS011;19031;51.400;6.770;2023-05-27T10:29:15;7.32;;;2.63;;
32613;SDS011;19031;51.400;6.770;2023-05-27T10:31:51;10.40;;;3.40;;
32613;SDS011;19031;51.400;6.770;2023-05-27T10:34:20;10.30;;;3.25;;
32613;SDS011;19031;51.400;6.770;2023-05-27T10:36:46;7.18;;;2.75;;
32613;SDS011;19031;51.400;6.770;2023-05-27T10:39:22;13.27;;;2.97;;
32613;SDS011;19031;51.400;6.770;2023-05-27T10:41:49;10.43;;;2.88;;
32613;SDS011;19031;51.400;6.770;2023-05-27T10:47:13;15.23;;;3.42;;
32613;SDS011;19031;51.400;6.770;2023-05-27T10:49:40;13.48;;;2.75;;
32613;SDS011;19031;51.400;6.770;2023-05-27T10:52:13;13.40;;;3.80;;
32613;SDS011;19031;51.400;6.770;2023-05-27T10:54:41;12.18;;;3.85;;
32613;SDS011;19031;51.400;6.770;2023-05-27T10:57:10;9.85;;;3.50;;
32613;SDS011;19031;51.400;6.770;2023-05-27T10:59:40;12.35;;;2.95;;
32613;SDS011;19031;51.400;6.770;2023-05-27T11:02:17;12.40;;;3.55;;
32613;SDS011;19031;51.400;6.770;2023-05-27T11:04:43;11.75;;;3.55;;
32613;SDS011;19031;51.400;6.770;2023-05-27T11:07:10;12.55;;;3.78;;
32613;SDS011;19031;51.400;6.770;2023-05-27T11:09:42;13.50;;;3.55;;
32613;SDS011;19031;51.400;6.770;2023-05-27T11:12:15;10.07;;;3.17;;
32613;SDS011;19031;51.400;6.770;2023-05-27T11:14:46;11.52;;;2.55;;
32613;SDS011;19031;51.400;6.770;2023-05-27T11:17:16;9.63;;;2.95;;
32613;SDS011;19031;51.400;6.770;2023-05-27T11:19:43;9.13;;;2.80;;
32613;SDS011;19031;51.400;6.770;2023-05-27T11:22:12;6.75;;;2.70;;
32613;SDS011;19031;51.400;6.770;2023-05-27T11:24:39;9.52;;;3.25;;
32613;SDS011;19031;51.400;6.770;2023-05-27T11:29:38;13.45;;;2.95;;
32613;SDS011;19031;51.400;6.770;2023-05-27T11:32:05;8.95;;;3.13;;
32613;SDS011;19031;51.400;6.770;2023-05-27T11:34:33;9.07;;;2.80;;
32613;SDS011;19031;51.400;6.770;2023-05-27T11:37:03;14.63;;;3.42;;
32613;SDS011;19031;51.400;6.770;2023-05-27T11:39:29;11.15;;;3.17;;
32613;SDS011;19031;51.400;6.770;2023-05-27T11:42:00;10.82;;;3.28;;
32613;SDS011;19031;51.400;6.770;2023-05-27T11:44:31;8.27;;;2.83;;
32613;SDS011;19031;51.400;6.770;2023-05-27T11:47:00;9.90;;;2.65;;
32613;SDS011;19031;51.400;6.770;2023-05-27T11:49:26;9.05;;;2.80;;
32613;SDS011;19031;51.400;6.770;2023-05-27T11:51:54;9.45;;;2.92;;
32613;SDS011;19031;51.400;6.770;2023-05-27T11:54:27;9.75;;;3.03;;
32613;SDS011;19031;51.400;6.770;2023-05-27T11:56:54;9.63;;;2.90;;
32613;SDS011;19031;51.400;6.770;2023-05-27T11:59:21;9.52;;;2.90;;
32613;SDS011;19031;51.400;6.770;2023-05-27T12:01:48;6.47;;;2.88;;
32613;SDS011;19031;51.400;6.770;2023-05-27T12:04:14;11.68;;;2.50;;
32613;SDS011;19031;51.400;6.770;2023-05-27T12:06:41;9.65;;;3.05;;
32613;SDS011;19031;51.400;6.770;2023-05-27T12:09:08;10.38;;;2.55;;
32613;SDS011;19031;51.400;6.770;2023-05-27T12:11:34;8.40;;;2.17;;
32613;SDS011;19031;51.400;6.770;2023-05-27T12:14:00;13.30;;;3.47;;
32613;SDS011;19031;51.400;6.770;2023-05-27T12:16:26;9.80;;;2.72;;
32613;SDS011;19031;51.400;6.770;2023-05-27T12:18:52;8.18;;;2.40;;
32613;SDS011;19031;51.400;6.770;2023-05-27T12:21:18;9.18;;;2.45;;
32613;SDS011;19031;51.400;6.770;2023-05-27T12:23:45;7.97;;;2.40;;
32613;SDS011;19031;51.400;6.770;2023-05-27T12:26:14;12.23;;;2.97;;
32613;SDS011;19031;51.400;6.770;2023-05-27T12:28:40;10.02;;;2.80;;
32613;SDS011;19031;51.400;6.770;2023-05-27T12:31:07;10.45;;;3.10;;
32613;SDS011;19031;51.400;6.770;2023-05-27T12:33:33;6.65;;;2.33;;
32613;SDS011;19031;51.400;6.770;2023-05-27T12:35:59;11.07;;;3.28;;
32613;SDS011;19031;51.400;6.770;2023-05-27T12:38:25;9.55;;;3.47;;
32613;SDS011;19031;51.400;6.770;2023-05-27T12:40:51;9.93;;;2.50;;
32613;SDS011;19031;51.400;6.770;2023-05-27T12:43:17;7.25;;;2.33;;
32613;SDS011;19031;51.400;6.770;2023-05-27T12:45:43;6.88;;;2.40;;
32613;SDS011;19031;51.400;6.770;2023-05-27T12:48:10;6.05;;;2.90;;
32613;SDS011;19031;51.400;6.770;2023-05-27T12:50:36;9.90;;;2.83;;
32613;SDS011;19031;51.400;6.770;2023-05-27T12:53:02;11.45;;;3.45;;
32613;SDS011;19031;51.400;6.770;2023-05-27T12:55:28;9.88;;;3.13;;
32613;SDS011;19031;51.400;6.770;2023-05-27T12:57:56;12.27;;;3.05;;
32613;SDS011;19031;51.400;6.770;2023-05-27T13:00:22;10.20;;;2.83;;
32613;SDS011;19031;51.400;6.770;2023-05-27T13:02:48;7.90;;;2.42;;
32613;SDS011;19031;51.400;6.770;2023-05-27T13:05:14;7.10;;;2.55;;
32613;SDS011;19031;51.400;6.770;2023-05-27T13:07:40;8.20;;;2.80;;
32613;SDS011;19031;51.400;6.770;2023-05-27T13:10:17;8.85;;;3.03;;
32613;SDS011;19031;51.400;6.770;2023-05-27T13:12:46;7.85;;;2.55;;
32613;SDS011;19031;51.400;6.770;2023-05-27T13:15:12;9.57;;;3.60;;
32613;SDS011;19031;51.400;6.770;2023-05-27T13:17:38;7.53;;;2.60;;
32613;SDS011;19031;51.400;6.770;2023-05-27T13:20:03;8.73;;;3.10;;
32613;SDS011;19031;51.400;6.770;2023-05-27T13:22:29;7.95;;;2.35;;
32613;SDS011;19031;51.400;6.770;2023-05-27T13:24:55;6.43;;;2.47;;
32613;SDS011;19031;51.400;6.770;2023-05-27T13:27:21;7.72;;;2.60;;
32613;SDS011;19031;51.400;6.770;2023-05-27T13:29:46;8.07;;;2.88;;
32613;SDS011;19031;51.400;6.770;2023-05-27T13:32:12;9.48;;;2.92;;
32613;SDS011;19031;51.400;6.770;2023-05-27T13:34:38;7.82;;;2.80;;
32613;SDS011;19031;51.400;6.770;2023-05-27T13:37:04;10.43;;;2.45;;
32613;SDS011;19031;51.400;6.770;2023-05-27T13:39:29;7.55;;;2.83;;
32613;SDS011;19031;51.400;6.770;2023-05-27T13:41:56;7.03;;;2.50;;
32613;SDS011;19031;51.400;6.770;2023-05-27T13:44:22;9.45;;;2.88;;
32613;SDS011;19031;51.400;6.770;2023-05-27T13:46:47;7.38;;;2.72;;
32613;SDS011;19031;51.400;6.770;2023-05-27T13:49:13;7.60;;;2.60;;
32613;SDS011;19031;51.400;6.770;2023-05-27T13:51:42;9.63;;;3.03;;
32613;SDS011;19031;51.400;6.770;2023-05-27T13:54:08;7.63;;;2.83;;
32613;SDS011;19031;51.400;6.770;2023-05-27T13:56:34;6.85;;;2.38;;
32613;SDS011;19031;51.400;6.770;2023-05-27T13:59:00;9.52;;;3.33;;
32613;SDS011;19031;51.400;6.770;2023-05-27T14:01:28;8.38;;;2.83;;
32613;SDS011;19031;51.400;6.770;2023-05-27T14:03:57;9.75;;;3.33;;
32613;SDS011;19031;51.400;6.770;2023-05-27T14:06:23;5.97;;;2.25;;
32613;SDS011;19031;51.400;6.770;2023-05-27T14:08:49;9.95;;;3.10;;
32613;SDS011;19031;51.400;6.770;2023-05-27T14:11:14;9.30;;;3.15;;
32613;SDS011;19031;51.400;6.770;2023-05-27T14:13:41;9.18;;;2.88;;
32613;SDS011;19031;51.400;6.770;2023-05-27T14:16:06;9.80;;;2.88;;
32613;SDS011;19031;51.400;6.770;2023-05-27T14:18:32;8.00;;;3.00;;
32613;SDS011;19031;51.400;6.770;2023-05-27T14:20:58;7.32;;;2.85;;
32613;SDS011;19031;51.400;6.770;2023-05-27T14:23:26;9.75;;;3.90;;
32613;SDS011;19031;51.400;6.770;2023-05-27T14:25:51;11.23;;;3.40;;
32613;SDS011;19031;51.400;6.770;2023-05-27T14:28:17;8.10;;;3.25;;
32613;SDS011;19031;51.400;6.770;2023-05-27T14:30:43;8.73;;;3.25;;
32613;SDS011;19031;51.400;6.770;2023-05-27T14:33:08;8.45;;;3.17;;
32613;SDS011;19031;51.400;6.770;2023-05-27T14:35:34;8.50;;;2.60;;
32613;SDS011;19031;51.400;6.770;2023-05-27T14:38:01;7.20;;;2.80;;
32613;SDS011;19031;51.400;6.770;2023-05-27T14:40:27;8.30;;;3.30;;
32613;SDS011;19031;51.400;6.770;2023-05-27T14:42:52;8.27;;;2.95;;
32613;SDS011;19031;51.400;6.770;2023-05-27T14:45:18;5.65;;;2.80;;
32613;SDS011;19031;51.400;6.770;2023-05-27T14:47:45;14.07;;;3.15;;
32613;SDS011;19031;51.400;6.770;2023-05-27T14:50:11;8.40;;;3.08;;